createdAt,value
2022-12-20T00:01:59.160Z,69.57
2022-12-20T00:04:27.832Z,55.70
2022-12-20T00:06:55.962Z,52.83
2022-12-20T00:09:25.452Z,53.22
2022-12-20T00:11:57.603Z,58.67
2022-12-20T00:14:25.771Z,61.58
2022-12-20T00:16:55.468Z,58.20
2022-12-20T00:19:23.711Z,55.65
2022-12-20T00:21:52.009Z,57.97
2022-12-20T00:24:25.881Z,61.15
2022-12-20T00:26:54.795Z,59.28
2022-12-20T00:29:23.414Z,60.15
2022-12-20T00:31:51.785Z,58.97
2022-12-20T00:34:21.589Z,57.92
2022-12-20T00:36:49.958Z,64.50
2022-12-20T00:39:18.352Z,52.83
2022-12-20T00:41:46.830Z,51.08
2022-12-20T00:44:14.777Z,52.35
2022-12-20T00:46:43.104Z,54.03
2022-12-20T00:49:11.260Z,58.42
2022-12-20T00:51:40.905Z,57.67
2022-12-20T00:54:08.859Z,55.50
2022-12-20T00:56:37.303Z,58.95
2022-12-20T00:59:05.444Z,55.85
2022-12-20T01:01:34.901Z,52.25
2022-12-20T01:04:03.935Z,50.10
2022-12-20T01:06:32.621Z,55.88
2022-12-20T01:09:02.878Z,52.97
2022-12-20T01:11:31.867Z,52.63
2022-12-20T01:14:02.615Z,55.28
2022-12-20T01:16:32.201Z,50.30
2022-12-20T01:19:00.664Z,55.00
2022-12-20T01:21:29.413Z,58.00
2022-12-20T01:23:57.560Z,51.80
2022-12-20T01:26:28.626Z,57.67
2022-12-20T01:28:58.426Z,53.10
2022-12-20T01:31:27.250Z,57.08
2022-12-20T01:33:55.518Z,56.97
2022-12-20T01:36:25.349Z,53.15
2022-12-20T01:38:57.412Z,53.70
2022-12-20T01:41:28.637Z,55.22
2022-12-20T01:43:57.722Z,50.65
2022-12-20T01:46:26.631Z,55.42
2022-12-20T01:48:56.669Z,58.85
2022-12-20T01:51:25.237Z,55.58
2022-12-20T01:53:55.842Z,58.65
2022-12-20T01:56:24.266Z,64.47
2022-12-20T01:58:55.150Z,58.63
2022-12-20T02:01:24.635Z,48.45
2022-12-20T02:03:53.596Z,55.20
2022-12-20T02:06:23.234Z,49.53
2022-12-20T02:08:52.464Z,53.63
2022-12-20T02:11:37.288Z,50.95
2022-12-20T02:14:10.582Z,57.17
2022-12-20T02:16:43.960Z,48.80
2022-12-20T02:19:22.017Z,55.20
2022-12-20T02:21:54.597Z,53.47
2022-12-20T02:24:37.529Z,53.20
2022-12-20T02:27:24.407Z,48.13
2022-12-20T02:30:08.182Z,52.35
2022-12-20T02:32:38.752Z,49.78
2022-12-20T02:35:08.761Z,56.50
2022-12-20T02:37:37.428Z,54.30
2022-12-20T02:40:06.503Z,48.88
2022-12-20T02:42:35.781Z,46.72
2022-12-20T02:45:17.968Z,57.10
2022-12-20T02:47:53.585Z,49.35
2022-12-20T02:50:23.861Z,49.78
2022-12-20T02:52:52.693Z,51.20
2022-12-20T02:55:22.085Z,46.38
2022-12-20T02:57:59.716Z,47.83
2022-12-20T03:00:33.430Z,45.00
2022-12-20T03:03:20.716Z,52.53
2022-12-20T03:05:50.220Z,55.95
2022-12-20T03:08:18.699Z,47.50
2022-12-20T03:10:46.999Z,47.97
2022-12-20T03:13:15.187Z,50.47
2022-12-20T03:15:43.425Z,39.25
2022-12-20T03:18:12.892Z,42.83
2022-12-20T03:20:41.410Z,49.70
2022-12-20T03:23:09.471Z,39.53
2022-12-20T03:25:37.703Z,34.20
2022-12-20T03:28:06.241Z,41.17
2022-12-20T03:30:34.742Z,44.70
2022-12-20T03:33:03.721Z,37.55
2022-12-20T03:35:33.124Z,36.65
2022-12-20T03:38:01.466Z,41.20
2022-12-20T03:40:30.248Z,41.90
2022-12-20T03:42:58.384Z,45.20
2022-12-20T03:45:26.679Z,45.97
2022-12-20T03:47:55.142Z,41.65
2022-12-20T03:50:24.034Z,40.65
2022-12-20T03:52:53.479Z,42.38
2022-12-20T03:55:21.595Z,44.53
2022-12-20T03:57:49.689Z,40.30
2022-12-20T04:00:19.082Z,42.10
2022-12-20T04:02:48.284Z,34.75
2022-12-20T04:05:17.219Z,37.25
2022-12-20T04:07:46.048Z,42.65
2022-12-20T04:10:15.895Z,44.38
2022-12-20T04:12:44.029Z,37.42
2022-12-20T04:15:12.296Z,38.15
2022-12-20T04:17:40.842Z,39.88
2022-12-20T04:20:20.032Z,40.70
2022-12-20T04:22:48.948Z,41.03
2022-12-20T04:25:28.441Z,46.53
2022-12-20T04:27:56.613Z,49.13
2022-12-20T04:30:25.015Z,46.00
2022-12-20T04:32:54.798Z,45.13
2022-12-20T04:35:22.911Z,43.25
2022-12-20T04:37:51.155Z,45.63
2022-12-20T04:40:21.080Z,44.40
2022-12-20T04:42:49.148Z,43.42
2022-12-20T04:45:17.310Z,40.75
2022-12-20T04:47:45.730Z,53.63
2022-12-20T04:50:13.790Z,47.67
2022-12-20T04:53:10.566Z,45.83
2022-12-20T04:55:40.571Z,47.15
2022-12-20T04:58:09.368Z,45.78
2022-12-20T05:00:37.468Z,48.53
2022-12-20T05:03:05.923Z,47.63
2022-12-20T05:05:34.185Z,42.20
2022-12-20T05:08:02.362Z,46.92
2022-12-20T05:10:30.666Z,42.90
2022-12-20T05:13:04.177Z,46.42
2022-12-20T05:15:37.379Z,45.55
2022-12-20T05:18:05.638Z,44.83
2022-12-20T05:20:33.831Z,44.78
2022-12-20T05:23:19.929Z,44.38
2022-12-20T05:26:05.120Z,40.53
2022-12-20T05:28:35.287Z,44.83
2022-12-20T05:31:04.201Z,54.45
2022-12-20T05:33:34.391Z,52.33
2022-12-20T05:36:02.874Z,49.80
2022-12-20T05:38:31.428Z,44.92
2022-12-20T05:40:59.883Z,48.90
2022-12-20T05:43:28.156Z,48.03
2022-12-20T05:45:57.695Z,44.45
2022-12-20T05:48:25.796Z,44.83
2022-12-20T05:50:54.480Z,45.55
2022-12-20T05:53:22.781Z,64.65
2022-12-20T05:55:51.637Z,55.45
2022-12-20T05:58:21.028Z,47.47
2022-12-20T06:00:50.355Z,40.72
2022-12-20T06:03:20.819Z,55.15
2022-12-20T06:05:49.303Z,49.95
2022-12-20T06:08:17.484Z,49.42
2022-12-20T06:10:45.911Z,50.88
2022-12-20T06:13:14.039Z,48.67
2022-12-20T06:15:42.511Z,53.97
2022-12-20T06:18:11.419Z,50.10
2022-12-20T06:20:41.248Z,45.95
2022-12-20T06:23:09.872Z,44.03
2022-12-20T06:25:39.743Z,45.13
2022-12-20T06:28:08.019Z,46.03
2022-12-20T06:30:36.140Z,42.28
2022-12-20T06:33:04.953Z,41.95
2022-12-20T06:35:32.987Z,41.03
2022-12-20T06:38:02.595Z,41.20
2022-12-20T06:40:30.685Z,38.97
2022-12-20T06:42:58.876Z,39.70
2022-12-20T06:45:27.438Z,41.60
2022-12-20T06:47:55.801Z,42.80
2022-12-20T06:50:24.001Z,39.85
2022-12-20T06:52:52.124Z,42.58
2022-12-20T06:55:21.697Z,43.20
2022-12-20T06:57:49.913Z,47.80
2022-12-20T07:00:19.172Z,57.75
2022-12-20T07:02:47.866Z,43.25
2022-12-20T07:05:16.538Z,48.72
2022-12-20T07:07:45.582Z,44.45
2022-12-20T07:10:14.684Z,41.17
2022-12-20T07:12:48.156Z,44.65
2022-12-20T07:15:17.105Z,46.38
2022-12-20T07:17:51.563Z,51.33
2022-12-20T07:20:23.008Z,51.42
2022-12-20T07:22:54.009Z,46.60
2022-12-20T07:25:22.299Z,50.78
2022-12-20T07:27:52.127Z,54.83
2022-12-20T07:30:23.516Z,54.53
2022-12-20T07:33:01.691Z,57.75
2022-12-20T07:35:38.714Z,58.05
2022-12-20T07:38:24.056Z,54.70
2022-12-20T07:40:52.634Z,48.42
2022-12-20T07:43:22.423Z,56.03
2022-12-20T07:45:54.983Z,47.63
2022-12-20T07:48:23.973Z,47.05
2022-12-20T07:50:53.206Z,52.08
2022-12-20T07:53:22.088Z,48.47
2022-12-20T07:55:51.182Z,50.05
2022-12-20T07:58:20.075Z,49.90
2022-12-20T08:00:50.214Z,90.80
2022-12-20T08:03:21.075Z,60.90
2022-12-20T08:05:52.267Z,61.20
2022-12-20T08:08:21.191Z,58.13
2022-12-20T08:10:50.308Z,55.90
2022-12-20T08:13:18.841Z,52.45
2022-12-20T08:15:47.008Z,58.50
2022-12-20T08:18:16.693Z,51.20
2022-12-20T08:20:45.190Z,54.50
2022-12-20T08:23:13.379Z,54.35
2022-12-20T08:25:42.312Z,58.03
2022-12-20T08:28:11.012Z,55.78
2022-12-20T08:30:40.223Z,55.00
2022-12-20T08:33:08.443Z,50.60
2022-12-20T08:35:38.202Z,62.55
2022-12-20T08:38:06.346Z,55.78
2022-12-20T08:40:34.626Z,63.20
2022-12-20T08:43:09.780Z,73.60
2022-12-20T08:45:38.549Z,80.32
2022-12-20T08:48:06.863Z,90.30
2022-12-20T08:50:36.451Z,72.95
2022-12-20T08:53:06.223Z,72.40
2022-12-20T08:55:34.294Z,64.32
2022-12-20T08:58:02.517Z,64.53
2022-12-20T09:00:30.733Z,61.80
2022-12-20T09:03:02.332Z,62.03
2022-12-20T09:05:30.825Z,56.95
2022-12-20T09:07:59.592Z,52.25
2022-12-20T09:10:29.566Z,54.08
2022-12-20T09:12:58.007Z,59.78
2022-12-20T09:15:27.835Z,45.92
2022-12-20T09:17:56.824Z,42.47
2022-12-20T09:20:25.764Z,48.22
2022-12-20T09:22:55.089Z,46.75
2022-12-20T09:25:23.727Z,51.72
2022-12-20T09:27:53.959Z,40.33
2022-12-20T09:30:22.211Z,46.28
2022-12-20T09:32:57.188Z,47.03
2022-12-20T09:35:36.930Z,53.78
2022-12-20T09:38:06.563Z,51.72
2022-12-20T09:40:38.709Z,59.53
2022-12-20T09:43:11.244Z,50.67
2022-12-20T09:45:39.489Z,54.30
2022-12-20T09:48:10.389Z,63.42
2022-12-20T09:50:47.412Z,51.47
2022-12-20T09:55:50.091Z,51.00
2022-12-20T09:58:33.027Z,51.25
2022-12-20T10:01:15.311Z,51.20
2022-12-20T10:03:44.276Z,46.85
2022-12-20T10:06:17.775Z,50.13
2022-12-20T10:08:48.065Z,46.75
2022-12-20T10:11:25.125Z,50.85
2022-12-20T10:14:02.656Z,36.85
2022-12-20T10:16:40.741Z,36.90
2022-12-20T10:19:23.680Z,42.28
2022-12-20T10:21:54.231Z,41.47
2022-12-20T10:24:30.577Z,44.75
2022-12-20T10:26:59.858Z,36.10
2022-12-20T10:29:29.355Z,38.53
2022-12-20T10:32:01.109Z,36.33
2022-12-20T10:34:36.579Z,38.42
2022-12-20T10:37:13.294Z,39.38
2022-12-20T10:39:42.457Z,38.65
2022-12-20T10:42:24.933Z,38.55
2022-12-20T10:44:53.341Z,42.92
2022-12-20T10:47:32.885Z,36.17
2022-12-20T10:50:09.828Z,43.83
2022-12-20T10:52:38.698Z,41.42
2022-12-20T10:55:29.856Z,36.30
2022-12-20T10:57:58.473Z,39.80
2022-12-20T11:00:29.697Z,39.60
2022-12-20T11:03:11.989Z,39.92
2022-12-20T11:05:40.992Z,39.35
2022-12-20T11:08:36.286Z,39.33
2022-12-20T11:11:12.905Z,39.15
2022-12-20T11:13:41.751Z,42.28
2022-12-20T11:16:23.707Z,38.05
2022-12-20T11:18:58.447Z,36.33
2022-12-20T11:21:32.644Z,34.10
2022-12-20T11:24:04.571Z,30.85
2022-12-20T11:26:38.248Z,30.05
2022-12-20T11:29:11.944Z,29.55
2022-12-20T11:31:45.422Z,29.02
2022-12-20T11:34:20.861Z,30.70
2022-12-20T11:37:04.940Z,30.88
2022-12-20T11:39:36.502Z,27.35
2022-12-20T11:42:07.089Z,26.88
2022-12-20T11:44:52.000Z,30.38
2022-12-20T11:47:38.243Z,27.80
2022-12-20T11:50:24.690Z,25.48
2022-12-20T11:52:53.661Z,28.38
2022-12-20T11:55:25.853Z,26.45
2022-12-20T12:00:49.818Z,22.95
2022-12-20T12:03:21.954Z,28.10
2022-12-20T12:05:54.518Z,25.33
2022-12-20T12:08:24.656Z,27.90
2022-12-20T12:10:55.791Z,25.60
2022-12-20T12:13:25.451Z,25.90
2022-12-20T12:15:56.618Z,24.70
2022-12-20T12:18:26.812Z,25.35
2022-12-20T12:21:06.589Z,28.52
2022-12-20T12:23:40.904Z,28.27
2022-12-20T12:26:14.313Z,27.67
2022-12-20T12:28:42.823Z,30.65
2022-12-20T12:31:14.952Z,29.30
2022-12-20T12:33:45.411Z,29.83
2022-12-20T12:36:32.073Z,27.48
2022-12-20T12:39:09.287Z,28.05
2022-12-20T12:42:04.869Z,28.60
2022-12-20T12:44:36.918Z,28.08
2022-12-20T12:47:07.992Z,26.20
2022-12-20T12:49:40.490Z,28.60
2022-12-20T12:52:09.432Z,24.02
2022-12-20T12:54:41.008Z,20.77
2022-12-20T12:57:14.342Z,26.27
2022-12-20T12:59:46.118Z,29.23
2022-12-20T13:02:25.958Z,29.35
2022-12-20T13:04:55.635Z,30.25
2022-12-20T13:07:43.679Z,29.38
2022-12-20T13:10:34.981Z,30.23
2022-12-20T13:13:13.966Z,28.63
2022-12-20T13:15:49.385Z,31.73
2022-12-20T13:18:25.277Z,28.55
2022-12-20T13:21:12.763Z,26.52
2022-12-20T13:23:41.257Z,26.08
2022-12-20T13:26:43.523Z,27.10
2022-12-20T13:29:27.129Z,21.35
2022-12-20T13:31:56.956Z,23.27
2022-12-20T13:34:40.772Z,26.95
2022-12-20T13:37:54.181Z,27.27
2022-12-20T13:40:27.316Z,21.90
2022-12-20T13:42:56.010Z,19.90
2022-12-20T13:45:24.590Z,23.13
2022-12-20T13:48:06.370Z,19.00
2022-12-20T13:50:40.999Z,21.88
2022-12-20T13:53:17.367Z,25.40
2022-12-20T13:55:45.571Z,22.83
2022-12-20T13:58:18.683Z,20.08
2022-12-20T14:00:47.796Z,21.52
2022-12-20T14:03:21.684Z,26.98
2022-12-20T14:05:51.091Z,27.05
2022-12-20T14:08:21.970Z,30.45
2022-12-20T14:10:53.215Z,28.08
2022-12-20T14:13:23.124Z,31.75
2022-12-20T14:15:51.485Z,30.95
2022-12-20T14:18:22.306Z,35.67
2022-12-20T14:20:52.287Z,34.38
2022-12-20T14:23:21.728Z,29.92
2022-12-20T14:25:52.658Z,30.60
2022-12-20T14:28:27.957Z,29.00
2022-12-20T14:31:00.016Z,29.05
2022-12-20T14:33:35.962Z,32.20
2022-12-20T14:36:11.450Z,26.85
2022-12-20T14:38:40.138Z,28.67
2022-12-20T14:41:23.687Z,28.55
2022-12-20T14:43:57.273Z,32.00
2022-12-20T14:46:25.748Z,29.20
2022-12-20T14:49:08.776Z,25.90
2022-12-20T14:51:37.217Z,29.58
2022-12-20T14:54:06.016Z,23.83
2022-12-20T14:56:34.727Z,28.73
2022-12-20T14:59:04.573Z,25.55
2022-12-20T15:01:35.828Z,21.15
2022-12-20T15:04:23.244Z,20.77
2022-12-20T15:06:52.840Z,24.50
2022-12-20T15:09:21.459Z,22.35
2022-12-20T15:11:51.746Z,23.27
2022-12-20T15:14:23.252Z,20.60
2022-12-20T15:16:52.272Z,19.95
2022-12-20T15:19:21.784Z,22.45
2022-12-20T15:21:50.709Z,21.98
2022-12-20T15:24:22.033Z,22.30
2022-12-20T15:26:50.404Z,19.17
2022-12-20T15:29:19.474Z,20.88
2022-12-20T15:31:48.607Z,24.88
2022-12-20T15:34:20.224Z,28.67
2022-12-20T15:36:50.578Z,26.75
2022-12-20T15:39:18.694Z,27.08
2022-12-20T15:41:49.585Z,36.95
2022-12-20T15:44:19.327Z,35.53
2022-12-20T15:46:47.857Z,35.90
2022-12-20T15:49:16.472Z,32.63
2022-12-20T15:51:45.583Z,37.35
2022-12-20T15:54:22.999Z,35.83
2022-12-20T15:56:51.449Z,36.47
2022-12-20T15:59:57.835Z,35.58
2022-12-20T16:02:14.289Z,35.70
2022-12-20T16:04:47.509Z,36.05
2022-12-20T16:07:38.262Z,34.42
2022-12-20T16:10:14.531Z,36.22
2022-12-20T16:12:43.285Z,33.60
2022-12-20T16:15:20.233Z,37.55
2022-12-20T16:17:49.194Z,39.40
2022-12-20T16:20:19.789Z,47.50
2022-12-20T16:22:48.500Z,38.42
2022-12-20T16:25:25.728Z,34.55
2022-12-20T16:27:54.411Z,40.63
2022-12-20T16:30:23.620Z,40.60
2022-12-20T16:32:52.500Z,44.10
2022-12-20T16:35:28.778Z,41.88
2022-12-20T16:38:00.917Z,41.88
2022-12-20T16:40:32.279Z,38.30
2022-12-20T16:43:01.341Z,40.78
2022-12-20T16:45:30.755Z,43.20
2022-12-20T16:47:59.853Z,42.70
2022-12-20T16:50:28.971Z,43.00
2022-12-20T16:52:57.401Z,39.10
2022-12-20T16:55:27.273Z,46.72
2022-12-20T16:57:57.522Z,44.28
2022-12-20T17:00:27.356Z,40.40
2022-12-20T17:02:56.809Z,36.28
2022-12-20T17:05:27.822Z,35.72
2022-12-20T17:07:56.617Z,32.92
2022-12-20T17:10:42.990Z,35.38
2022-12-20T17:13:14.052Z,36.70
2022-12-20T17:15:43.879Z,41.67
2022-12-20T17:18:14.931Z,44.90
2022-12-20T17:20:52.428Z,39.88
2022-12-20T17:26:07.369Z,36.03
2022-12-20T17:28:37.438Z,35.20
2022-12-20T17:31:08.365Z,31.92
2022-12-20T17:33:36.989Z,30.40
2022-12-20T17:36:05.858Z,22.52
2022-12-20T17:38:34.175Z,25.42
2022-12-20T17:41:02.759Z,24.00
2022-12-20T17:43:31.264Z,22.73
2022-12-20T17:46:01.185Z,24.52
2022-12-20T17:48:33.381Z,20.00
2022-12-20T17:51:04.037Z,24.92
2022-12-20T17:53:32.275Z,21.95
2022-12-20T17:56:00.900Z,20.48
2022-12-20T17:58:29.603Z,21.92
2022-12-20T18:00:58.305Z,22.95
2022-12-20T18:04:02.179Z,23.83
2022-12-20T18:06:16.060Z,22.17
2022-12-20T18:08:44.789Z,23.27
2022-12-20T18:11:15.877Z,21.15
2022-12-20T18:13:44.705Z,21.10
2022-12-20T18:16:13.410Z,26.23
2022-12-20T18:18:43.878Z,25.48
2022-12-20T18:21:14.148Z,23.20
2022-12-20T18:23:43.279Z,24.65
2022-12-20T18:26:13.128Z,28.92
2022-12-20T18:28:42.843Z,29.13
2022-12-20T18:31:12.511Z,26.48
2022-12-20T18:33:42.891Z,24.48
2022-12-20T18:36:11.773Z,28.50
2022-12-20T18:38:40.669Z,24.33
2022-12-20T18:41:10.761Z,28.83
2022-12-20T18:43:39.709Z,32.08
2022-12-20T18:46:11.772Z,80.00
2022-12-20T18:48:41.086Z,81.75
2022-12-20T18:51:12.595Z,82.55
2022-12-20T18:53:41.986Z,55.00
2022-12-20T18:56:12.310Z,40.60
2022-12-20T18:58:41.342Z,25.05
2022-12-20T19:01:12.413Z,24.98
2022-12-20T19:03:41.276Z,24.88
2022-12-20T19:06:11.706Z,22.30
2022-12-20T19:08:41.243Z,19.13
2022-12-20T19:11:11.186Z,20.08
2022-12-20T19:13:40.016Z,20.35
2022-12-20T19:16:09.872Z,26.33
2022-12-20T19:18:38.773Z,23.63
2022-12-20T19:21:07.667Z,18.90
2022-12-20T19:23:38.238Z,19.13
2022-12-20T19:26:08.051Z,17.75
2022-12-20T19:28:36.935Z,17.38
2022-12-20T19:31:07.885Z,17.90
2022-12-20T19:33:38.140Z,18.60
2022-12-20T19:36:10.968Z,18.35
2022-12-20T19:38:43.127Z,18.88
2022-12-20T19:41:12.063Z,20.70
2022-12-20T19:43:40.952Z,20.55
2022-12-20T19:46:10.085Z,20.23
2022-12-20T19:48:39.022Z,17.40
2022-12-20T19:51:10.308Z,19.90
2022-12-20T19:53:38.874Z,19.48
2022-12-20T19:56:09.830Z,19.08
2022-12-20T19:58:38.495Z,17.35
2022-12-20T20:01:07.779Z,15.20
2022-12-20T20:03:37.679Z,16.17
2022-12-20T20:06:06.909Z,17.38
2022-12-20T20:08:36.024Z,19.83
2022-12-20T20:11:09.806Z,17.75
2022-12-20T20:13:41.168Z,14.70
2022-12-20T20:16:14.269Z,19.30
2022-12-20T20:18:46.010Z,27.90
2022-12-20T20:21:17.950Z,71.38
2022-12-20T20:23:46.977Z,56.55
2022-12-20T20:26:17.081Z,40.72
2022-12-20T20:28:47.206Z,31.13
2022-12-20T20:31:16.935Z,19.27
2022-12-20T20:33:45.943Z,16.00
2022-12-20T20:36:15.998Z,19.70
2022-12-20T20:38:44.618Z,19.52
2022-12-20T20:41:14.083Z,17.52
2022-12-20T20:43:42.784Z,16.48
2022-12-20T20:46:15.505Z,17.70
2022-12-20T20:48:45.107Z,19.75
2022-12-20T20:51:14.120Z,18.45
2022-12-20T20:53:42.725Z,16.75
2022-12-20T20:56:13.562Z,17.35
2022-12-20T20:58:41.741Z,17.38
2022-12-20T21:01:13.718Z,19.30
2022-12-20T21:03:46.679Z,18.70
2022-12-20T21:06:39.194Z,20.38
2022-12-20T21:09:04.786Z,18.92
2022-12-20T21:11:38.528Z,18.40
2022-12-20T21:14:11.860Z,19.35
2022-12-20T21:16:41.820Z,17.05
2022-12-20T21:19:12.033Z,19.52
2022-12-20T21:21:40.732Z,20.38
2022-12-20T21:24:14.547Z,22.67
2022-12-20T21:26:44.749Z,20.25
2022-12-20T21:29:14.179Z,24.88
2022-12-20T21:31:45.112Z,25.40
2022-12-20T21:34:15.525Z,23.88
2022-12-20T21:36:47.228Z,18.88
2022-12-20T21:39:16.171Z,22.33
2022-12-20T21:41:47.319Z,25.63
2022-12-20T21:44:15.841Z,24.65
2022-12-20T21:46:47.382Z,26.77
2022-12-20T21:49:17.675Z,22.65
2022-12-20T21:51:46.287Z,25.35
2022-12-20T21:54:14.968Z,27.98
2022-12-20T21:56:43.527Z,25.33
2022-12-20T21:59:12.096Z,25.92
2022-12-20T22:01:41.005Z,26.73
2022-12-20T22:04:09.760Z,27.65
2022-12-20T22:06:40.076Z,25.17
2022-12-20T22:09:10.319Z,22.85
2022-12-20T22:11:39.112Z,26.42
2022-12-20T22:14:07.466Z,25.98
2022-12-20T22:16:35.950Z,27.25
2022-12-20T22:19:04.617Z,22.42
2022-12-20T22:21:35.213Z,28.67
2022-12-20T22:24:05.842Z,27.30
2022-12-20T22:26:35.940Z,25.33
2022-12-20T22:29:09.728Z,27.13
2022-12-20T22:31:38.141Z,25.08
2022-12-20T22:34:06.405Z,23.50
2022-12-20T22:36:38.133Z,24.40
2022-12-20T22:39:08.830Z,39.70
2022-12-20T22:41:37.592Z,62.70
2022-12-20T22:44:06.457Z,65.32
2022-12-20T22:46:34.783Z,58.40
2022-12-20T22:49:03.292Z,58.80
2022-12-20T22:51:33.610Z,43.97
2022-12-20T22:54:02.307Z,38.45
2022-12-20T22:56:32.218Z,33.72
2022-12-20T22:59:00.629Z,27.20
2022-12-20T23:01:29.308Z,24.88
2022-12-20T23:03:57.567Z,26.33
2022-12-20T23:06:26.365Z,27.75
2022-12-20T23:08:54.900Z,30.27
2022-12-20T23:11:41.598Z,39.35
2022-12-20T23:14:29.610Z,67.55
2022-12-20T23:16:58.688Z,68.28
2022-12-20T23:19:27.821Z,70.25
2022-12-20T23:22:13.487Z,63.33
2022-12-20T23:24:42.024Z,70.05
2022-12-20T23:27:10.482Z,57.95
2022-12-20T23:29:40.847Z,66.70
2022-12-20T23:32:09.699Z,57.78
2022-12-20T23:34:38.261Z,52.25
2022-12-20T23:37:06.880Z,48.13
2022-12-20T23:39:34.877Z,44.40
2022-12-20T23:42:03.596Z,44.90
2022-12-20T23:44:32.386Z,47.38
2022-12-20T23:47:02.559Z,47.20
2022-12-20T23:49:31.044Z,45.22
2022-12-20T23:51:59.617Z,43.70
2022-12-20T23:54:28.026Z,43.85
2022-12-20T23:56:56.655Z,39.00
2022-12-20T23:59:24.750Z,37.30
